Time;durP1;ratioP1;P1;durP2;ratioP2;P2;SDS_P1;SDS_P2;PMS_P1;PMS_P2;Temp;Humidity;BMP_temperature;BMP_pressure;BME280_temperature;BME280_humidity;BME280_pressure;Samples;Min_cycle;Max_cycle;Signal;HPM_P1;HPM_P2
2023/06/26 00:01:10;;;;;;;12.63;8.00;;;22.10;99.90;;;;;;4993112;28;20077;-75
2023/06/26 00:03:56;;;;;;;11.93;8.10;;;22.10;99.90;;;;;;4992402;28;20051;-78
2023/06/26 00:06:43;;;;;;;12.70;7.90;;;22.10;99.90;;;;;;4993439;28;20053;-75
2023/06/26 00:09:29;;;;;;;12.57;8.35;;;22.10;99.90;;;;;;4992435;28;20470;-75
2023/06/26 00:12:15;;;;;;;12.90;8.55;;;22.10;99.90;;;;;;4993637;28;20061;-75
2023/06/26 00:15:01;;;;;;;12.70;8.32;;;22.00;99.90;;;;;;4976957;28;20050;-77
2023/06/26 00:17:47;;;;;;;12.40;8.93;;;22.00;99.90;;;;;;4992791;28;20042;-74
2023/06/26 00:20:34;;;;;;;9.85;7.72;;;22.00;99.90;;;;;;4992097;28;20117;-75
2023/06/26 00:23:20;;;;;;;11.98;8.70;;;21.90;99.90;;;;;;4963287;28;20566;-75
2023/06/26 00:26:06;;;;;;;12.23;9.25;;;21.90;99.90;;;;;;4991845;28;20047;-76
2023/06/26 00:28:52;;;;;;;12.48;9.23;;;21.80;99.90;;;;;;4978598;28;20221;-75
2023/06/26 00:31:39;;;;;;;14.68;8.85;;;21.80;99.90;;;;;;4977811;28;20054;-73
2023/06/26 00:34:25;;;;;;;12.20;9.18;;;21.80;99.90;;;;;;4991667;28;20053;-77
2023/06/26 00:37:12;;;;;;;12.35;8.75;;;21.70;99.90;;;;;;4978631;28;20053;-75
2023/06/26 00:39:58;;;;;;;14.32;9.48;;;21.70;99.90;;;;;;4974345;28;20479;-76
2023/06/26 00:42:44;;;;;;;13.85;9.52;;;21.70;99.90;;;;;;4993256;28;20047;-79
2023/06/26 00:45:30;;;;;;;13.68;9.32;;;21.60;99.90;;;;;;4974631;28;20568;-76
2023/06/26 00:48:16;;;;;;;13.70;9.45;;;21.60;99.90;;;;;;4991523;28;20441;-76
2023/06/26 00:51:02;;;;;;;13.40;8.93;;;21.60;99.90;;;;;;4975257;28;20546;-75
2023/06/26 00:53:49;;;;;;;15.32;9.55;;;21.50;99.90;;;;;;4960824;28;20053;-76
2023/06/26 00:56:35;;;;;;;12.60;9.13;;;21.50;99.90;;;;;;4991871;28;20050;-75
2023/06/26 00:59:21;;;;;;;11.73;9.05;;;21.50;99.90;;;;;;4960809;28;20054;-77
2023/06/26 01:02:07;;;;;;;12.63;9.07;;;21.50;99.90;;;;;;4993045;28;20645;-78
2023/06/26 01:04:53;;;;;;;13.98;9.77;;;21.40;99.90;;;;;;4991357;28;20054;-79
2023/06/26 01:07:40;;;;;;;11.93;9.77;;;21.40;99.90;;;;;;4990405;28;20065;-80
2023/06/26 01:10:27;;;;;;;12.10;8.70;;;21.40;99.90;;;;;;4973907;28;20058;-79
2023/06/26 01:13:14;;;;;;;13.05;9.40;;;21.30;99.90;;;;;;4974439;28;20085;-78
2023/06/26 01:16:02;;;;;;;13.60;9.02;;;21.30;99.90;;;;;;4977944;28;20064;-78
2023/06/26 01:18:49;;;;;;;14.15;9.80;;;21.30;99.90;;;;;;4992210;28;20053;-75
2023/06/26 01:21:42;;;;;;;14.32;9.90;;;21.30;99.90;;;;;;4990813;28;20137;-76
2023/06/26 01:24:36;;;;;;;13.90;9.55;;;21.30;99.90;;;;;;4990620;28;20113;-76
2023/06/26 01:27:24;;;;;;;14.60;10.38;;;21.30;99.90;;;;;;4990970;28;20497;-75
2023/06/26 01:30:11;;;;;;;12.13;9.68;;;21.30;99.90;;;;;;4991158;28;20537;-75
2023/06/26 01:32:57;;;;;;;15.00;10.10;;;21.30;99.90;;;;;;4992124;28;20050;-75
2023/06/26 01:35:44;;;;;;;14.07;9.60;;;21.20;99.90;;;;;;4990867;28;20050;-76
2023/06/26 01:38:30;;;;;;;15.05;9.57;;;21.20;99.90;;;;;;4992106;28;20057;-77
2023/06/26 01:41:18;;;;;;;12.50;9.40;;;21.20;99.90;;;;;;4990705;28;20153;-76
2023/06/26 01:44:16;;;;;;;13.57;10.00;;;21.20;99.90;;;;;;4989782;28;20046;-77
2023/06/26 01:47:04;;;;;;;12.43;10.15;;;21.10;99.90;;;;;;4992567;28;20062;-75
2023/06/26 01:50:09;;;;;;;13.32;9.75;;;21.10;99.90;;;;;;4991244;28;20092;-75
2023/06/26 01:53:12;;;;;;;13.52;10.57;;;21.10;99.90;;;;;;4989320;28;20054;-75
2023/06/26 01:56:06;;;;;;;15.18;10.20;;;21.20;99.90;;;;;;4990311;28;20054;-79
2023/06/26 01:58:54;;;;;;;14.35;9.98;;;21.20;99.90;;;;;;4972458;28;20547;-74
2023/06/26 02:01:41;;;;;;;14.25;10.45;;;21.20;99.90;;;;;;4991750;28;20058;-75
2023/06/26 02:04:27;;;;;;;12.50;9.35;;;21.20;99.90;;;;;;4989892;28;20573;-75
2023/06/26 02:07:13;;;;;;;17.25;9.85;;;21.20;99.90;;;;;;4990126;28;20136;-78
2023/06/26 02:09:59;;;;;;;13.80;10.25;;;21.30;99.90;;;;;;4989994;28;20089;-76
2023/06/26 02:12:45;;;;;;;14.05;10.85;;;21.30;99.90;;;;;;4974468;28;20112;-79
2023/06/26 02:15:31;;;;;;;14.98;10.60;;;21.30;99.90;;;;;;4991770;28;20157;-75
2023/06/26 02:18:17;;;;;;;14.25;10.25;;;21.40;99.90;;;;;;4991530;28;20054;-79
2023/06/26 02:21:04;;;;;;;14.10;9.73;;;21.40;99.90;;;;;;4974161;28;20058;-79
2023/06/26 02:23:50;;;;;;;12.35;10.30;;;21.40;99.90;;;;;;4975918;28;20359;-77
2023/06/26 02:26:36;;;;;;;18.95;11.07;;;21.40;99.90;;;;;;4975601;28;20069;-78
2023/06/26 02:29:22;;;;;;;14.07;11.35;;;21.40;99.90;;;;;;4973775;28;20054;-76
2023/06/26 02:32:08;;;;;;;14.77;10.30;;;21.30;99.90;;;;;;4991803;28;20141;-75
2023/06/26 02:34:54;;;;;;;14.50;9.85;;;21.30;99.90;;;;;;4960557;28;20054;-76
2023/06/26 02:37:40;;;;;;;16.13;11.15;;;21.30;99.90;;;;;;4972722;28;20061;-75
2023/06/26 02:40:26;;;;;;;13.63;10.15;;;21.30;99.90;;;;;;4973467;28;20093;-74
2023/06/26 02:43:12;;;;;;;15.63;11.10;;;21.20;99.90;;;;;;4991009;28;20494;-75
2023/06/26 02:45:58;;;;;;;12.15;10.18;;;21.20;99.90;;;;;;4991169;28;20054;-75
2023/06/26 02:48:44;;;;;;;13.57;10.38;;;21.20;99.90;;;;;;4991299;28;20085;-75
2023/06/26 02:51:33;;;;;;;14.30;10.52;;;21.20;99.90;;;;;;4991178;28;20058;-75
2023/06/26 02:54:19;;;;;;;14.15;10.48;;;21.20;99.90;;;;;;4976078;28;20060;-75
2023/06/26 02:57:05;;;;;;;12.60;9.60;;;21.20;99.90;;;;;;4991255;28;20046;-76
2023/06/26 02:59:51;;;;;;;12.70;9.80;;;21.20;99.90;;;;;;4990938;28;20049;-74
2023/06/26 03:02:37;;;;;;;14.25;10.50;;;21.20;99.90;;;;;;4972420;28;20054;-75
2023/06/26 03:05:23;;;;;;;11.57;9.77;;;21.20;99.90;;;;;;4989289;28;20139;-79
2023/06/26 03:08:10;;;;;;;15.18;9.80;;;21.20;99.90;;;;;;4990454;28;20094;-77
2023/06/26 03:10:55;;;;;;;14.70;10.63;;;21.20;99.90;;;;;;4972357;28;20074;-78
2023/06/26 03:13:42;;;;;;;15.15;10.45;;;21.20;99.90;;;;;;4992309;28;20101;-79
2023/06/26 03:16:28;;;;;;;16.05;11.55;;;21.20;99.90;;;;;;4971795;28;20056;-76
2023/06/26 03:19:14;;;;;;;15.52;11.25;;;21.20;99.90;;;;;;4989984;28;20061;-76
2023/06/26 03:22:00;;;;;;;12.57;10.38;;;21.20;99.90;;;;;;4974655;28;20061;-75
2023/06/26 03:24:46;;;;;;;16.05;11.68;;;21.20;99.90;;;;;;4989967;28;20086;-76
2023/06/26 03:27:32;;;;;;;16.02;12.15;;;21.20;99.90;;;;;;4972257;28;20100;-75
2023/06/26 03:30:18;;;;;;;14.13;12.40;;;21.20;99.90;;;;;;4989101;28;20046;-77
2023/06/26 03:33:04;;;;;;;14.93;12.18;;;21.20;99.90;;;;;;4991919;28;20050;-76
2023/06/26 03:35:50;;;;;;;17.48;12.07;;;21.20;99.90;;;;;;4989435;28;20498;-75
2023/06/26 03:38:36;;;;;;;17.50;10.95;;;21.30;99.90;;;;;;4974302;28;20054;-76
2023/06/26 03:41:23;;;;;;;16.20;11.85;;;21.30;99.90;;;;;;4973279;28;20514;-75
2023/06/26 03:44:09;;;;;;;16.33;11.95;;;21.30;99.90;;;;;;4989485;28;20050;-76
2023/06/26 03:46:55;;;;;;;14.18;10.95;;;21.20;99.90;;;;;;4972839;28;20422;-76
2023/06/26 03:49:41;;;;;;;17.25;11.48;;;21.20;99.90;;;;;;4990870;28;20055;-76
2023/06/26 03:52:30;;;;;;;17.67;12.88;;;21.20;99.90;;;;;;4973897;28;20061;-76
2023/06/26 03:55:18;;;;;;;16.75;10.57;;;21.20;99.90;;;;;;4990418;28;20047;-78
2023/06/26 03:58:05;;;;;;;17.40;11.95;;;21.20;99.90;;;;;;4989748;28;20164;-76
2023/06/26 04:00:51;;;;;;;17.77;11.43;;;21.20;99.90;;;;;;4988163;28;20058;-79
2023/06/26 04:03:37;;;;;;;16.75;11.25;;;21.20;99.90;;;;;;4971632;28;20414;-77
2023/06/26 04:06:23;;;;;;;18.23;11.35;;;21.20;99.90;;;;;;4972106;28;20077;-76
2023/06/26 04:09:09;;;;;;;16.48;11.30;;;21.20;99.90;;;;;;4972398;28;20050;-78
2023/06/26 04:11:55;;;;;;;20.48;12.45;;;21.10;99.90;;;;;;4988866;28;20054;-77
2023/06/26 04:14:41;;;;;;;20.88;11.10;;;21.10;99.90;;;;;;4989053;28;20057;-76
2023/06/26 04:17:27;;;;;;;24.02;11.82;;;21.10;99.90;;;;;;4992428;28;20189;-76
2023/06/26 04:20:14;;;;;;;22.13;12.00;;;21.10;99.90;;;;;;4993305;28;20047;-77
2023/06/26 04:23:00;;;;;;;22.65;12.30;;;21.00;99.90;;;;;;4991758;28;20050;-77
2023/06/26 04:25:46;;;;;;;27.63;13.05;;;21.00;99.90;;;;;;4994803;28;20042;-76
2023/06/26 04:28:36;;;;;;;27.40;14.95;;;20.90;99.90;;;;;;4994834;28;20046;-76
2023/06/26 04:31:22;;;;;;;27.17;14.70;;;20.70;99.90;;;;;;4992625;28;20046;-76
2023/06/26 04:34:08;;;;;;;32.08;16.42;;;20.50;99.90;;;;;;4994491;28;20061;-75
2023/06/26 04:36:54;;;;;;;24.35;16.17;;;20.30;99.90;;;;;;4994787;28;20042;-75
2023/06/26 04:39:40;;;;;;;32.78;17.00;;;20.20;99.90;;;;;;4991695;28;20546;-76
2023/06/26 04:42:26;;;;;;;29.73;15.70;;;20.10;99.90;;;;;;4994269;28;20463;-76
2023/06/26 04:45:12;;;;;;;26.40;14.13;;;20.10;99.90;;;;;;4963260;28;20105;-75
2023/06/26 04:48:00;;;;;;;34.33;14.50;;;20.00;99.90;;;;;;4993857;28;20521;-78
2023/06/26 04:50:53;;;;;;;23.65;11.43;;;20.00;99.90;;;;;;4976474;28;20048;-78
2023/06/26 04:53:39;;;;;;;18.85;7.72;;;19.80;99.90;;;;;;4973997;28;20050;-76
2023/06/26 04:56:25;;;;;;;20.35;6.70;;;19.80;99.90;;;;;;4993727;28;20133;-78
2023/06/26 04:59:13;;;;;;;18.70;6.82;;;19.80;99.90;;;;;;4992523;28;20054;-77
2023/06/26 05:01:59;;;;;;;14.98;6.00;;;19.80;99.90;;;;;;4991549;28;20388;-78
2023/06/26 05:04:46;;;;;;;23.80;6.40;;;19.80;99.90;;;;;;4973650;28;20068;-76
2023/06/26 05:07:32;;;;;;;16.83;5.50;;;19.70;99.90;;;;;;4975558;28;20061;-75
2023/06/26 05:10:18;;;;;;;15.18;4.93;;;19.70;99.90;;;;;;4960696;28;20060;-76
2023/06/26 05:13:04;;;;;;;18.30;5.28;;;19.80;99.90;;;;;;4991591;28;20054;-75
2023/06/26 05:15:51;;;;;;;18.45;5.43;;;19.70;99.90;;;;;;4992401;28;20517;-76
2023/06/26 05:18:38;;;;;;;16.50;5.10;;;19.70;99.90;;;;;;4991506;28;20057;-75
2023/06/26 05:21:24;;;;;;;19.35;6.65;;;19.70;99.90;;;;;;4993123;28;20050;-76
2023/06/26 05:24:14;;;;;;;20.52;6.00;;;19.60;99.90;;;;;;4991623;28;20056;-79
2023/06/26 05:27:01;;;;;;;17.23;5.50;;;19.60;99.90;;;;;;4990381;28;20065;-76
2023/06/26 05:29:48;;;;;;;17.85;4.93;;;19.50;99.90;;;;;;4974517;28;20050;-79
2023/06/26 05:32:38;;;;;;;13.68;4.88;;;19.40;99.90;;;;;;4991641;28;20094;-77
2023/06/26 05:35:27;;;;;;;23.65;6.22;;;19.40;99.90;;;;;;4974395;28;20093;-78
2023/06/26 05:38:14;;;;;;;16.88;4.90;;;19.40;99.90;;;;;;4991825;28;20046;-78
2023/06/26 05:41:00;;;;;;;17.65;4.75;;;19.40;99.90;;;;;;4975974;28;20083;-80
2023/06/26 05:43:46;;;;;;;21.23;5.35;;;19.40;99.90;;;;;;4961599;28;20147;-78
2023/06/26 05:46:32;;;;;;;18.35;3.90;;;19.40;99.90;;;;;;4990548;28;20038;-77
2023/06/26 05:49:18;;;;;;;14.60;4.25;;;19.40;99.90;;;;;;4973492;28;20486;-78
2023/06/26 05:52:05;;;;;;;18.50;5.25;;;19.40;99.90;;;;;;4990224;28;20050;-78
2023/06/26 05:54:51;;;;;;;17.73;5.18;;;19.50;99.90;;;;;;4991667;28;20102;-75
2023/06/26 05:57:39;;;;;;;15.73;4.18;;;19.60;99.90;;;;;;4973934;28;20047;-75
2023/06/26 06:00:26;;;;;;;20.73;4.50;;;19.70;99.90;;;;;;4991140;28;20058;-77
2023/06/26 06:03:12;;;;;;;22.77;5.20;;;19.70;99.90;;;;;;4992760;28;20081;-77
2023/06/26 06:05:59;;;;;;;19.17;3.85;;;19.80;99.90;;;;;;4990595;28;20116;-76
2023/06/26 06:08:45;;;;;;;15.60;3.45;;;19.80;99.90;;;;;;4990514;28;20418;-75
2023/06/26 06:11:31;;;;;;;18.75;4.35;;;19.90;99.90;;;;;;4990223;28;20085;-75
2023/06/26 06:14:17;;;;;;;17.58;3.78;;;20.00;99.90;;;;;;4991335;28;20141;-75
2023/06/26 06:17:03;;;;;;;17.77;4.35;;;19.90;99.90;;;;;;4973681;28;20058;-76
2023/06/26 06:19:49;;;;;;;19.52;3.65;;;20.00;99.90;;;;;;4975155;28;20061;-76
2023/06/26 06:22:35;;;;;;;13.02;3.22;;;20.10;99.90;;;;;;4977057;28;20502;-80
2023/06/26 06:25:21;;;;;;;14.70;3.50;;;20.10;99.90;;;;;;4990169;28;20104;-77
2023/06/26 06:28:07;;;;;;;14.88;3.55;;;20.20;99.90;;;;;;4990391;28;20114;-76
2023/06/26 06:30:53;;;;;;;9.48;2.42;;;20.30;99.90;;;;;;4991432;28;20085;-76
2023/06/26 06:33:39;;;;;;;12.30;3.17;;;20.30;99.90;;;;;;4973244;28;20094;-76
2023/06/26 06:36:26;;;;;;;14.90;3.08;;;20.50;99.90;;;;;;4990029;28;20506;-77
2023/06/26 06:39:12;;;;;;;11.68;3.00;;;20.60;99.90;;;;;;4989172;28;20046;-76
2023/06/26 06:41:58;;;;;;;11.93;3.03;;;20.60;99.90;;;;;;4975581;28;20131;-77
2023/06/26 06:44:44;;;;;;;8.65;2.40;;;20.70;99.90;;;;;;4990881;28;20046;-77
2023/06/26 06:47:31;;;;;;;12.15;3.05;;;20.60;99.90;;;;;;4989858;28;20054;-75
2023/06/26 06:50:17;;;;;;;14.02;2.00;;;20.70;99.90;;;;;;4991066;28;20053;-77
2023/06/26 06:53:03;;;;;;;10.13;2.63;;;20.70;99.90;;;;;;4989615;28;20055;-77
2023/06/26 06:55:50;;;;;;;10.93;2.65;;;20.90;99.90;;;;;;4989778;28;20168;-78
2023/06/26 06:58:36;;;;;;;10.88;2.55;;;20.90;99.90;;;;;;4989797;28;20054;-78
2023/06/26 07:01:22;;;;;;;10.82;2.47;;;21.00;99.90;;;;;;4990009;28;20054;-75
2023/06/26 07:04:08;;;;;;;10.55;2.65;;;21.00;99.90;;;;;;4990111;28;20061;-76
2023/06/26 07:06:54;;;;;;;8.55;2.40;;;21.10;99.90;;;;;;4989822;28;20182;-76
2023/06/26 07:09:40;;;;;;;14.68;2.33;;;21.20;99.90;;;;;;4990743;28;20065;-79
2023/06/26 07:12:26;;;;;;;12.40;2.10;;;21.40;99.90;;;;;;4959896;28;20062;-78
2023/06/26 07:15:13;;;;;;;7.95;2.10;;;21.40;99.90;;;;;;4972721;28;20062;-78
2023/06/26 07:17:59;;;;;;;6.88;2.13;;;21.50;99.90;;;;;;4990039;28;20039;-75
2023/06/26 07:20:45;;;;;;;8.70;1.77;;;21.40;99.90;;;;;;4990141;28;20054;-78
2023/06/26 07:23:31;;;;;;;12.82;2.40;;;21.50;99.90;;;;;;4989996;28;20528;-77
2023/06/26 07:26:17;;;;;;;10.50;2.45;;;21.30;99.90;;;;;;4976714;28;20058;-77
2023/06/26 07:29:03;;;;;;;7.68;1.90;;;21.50;99.90;;;;;;4990200;28;20056;-80
2023/06/26 07:31:49;;;;;;;10.75;2.38;;;21.60;99.90;;;;;;4972663;28;20380;-78
2023/06/26 07:34:36;;;;;;;11.68;2.35;;;21.70;99.90;;;;;;4989569;28;20050;-79
2023/06/26 07:37:22;;;;;;;9.55;2.50;;;21.80;99.90;;;;;;4972632;28;20051;-77
2023/06/26 07:40:09;;;;;;;8.68;2.00;;;21.90;99.90;;;;;;4988553;28;20046;-78
2023/06/26 07:42:57;;;;;;;11.90;2.53;;;21.70;99.90;;;;;;4972753;28;20058;-76
2023/06/26 07:45:43;;;;;;;11.23;2.40;;;21.60;99.90;;;;;;4972285;28;20089;-75
2023/06/26 07:48:29;;;;;;;10.23;1.92;;;21.60;99.90;;;;;;4989178;28;20143;-77
2023/06/26 07:51:15;;;;;;;10.77;2.22;;;21.70;99.90;;;;;;4974004;28;20379;-78
2023/06/26 07:54:01;;;;;;;6.32;2.47;;;21.70;99.90;;;;;;4992793;28;20600;-76
2023/06/26 07:57:02;;;;;;;9.60;2.33;;;21.80;99.90;;;;;;4993146;28;20380;-77
2023/06/26 07:59:48;;;;;;;10.68;2.42;;;22.00;99.90;;;;;;4992843;28;20042;-78
2023/06/26 08:02:34;;;;;;;7.93;2.10;;;22.10;99.90;;;;;;4962681;28;20042;-78
2023/06/26 08:05:20;;;;;;;9.18;2.60;;;22.30;99.90;;;;;;4976164;28;20057;-77
2023/06/26 08:08:06;;;;;;;8.90;2.03;;;22.40;99.90;;;;;;4962404;28;20058;-77
2023/06/26 08:10:52;;;;;;;7.13;2.17;;;22.50;99.90;;;;;;4962015;28;20053;-77
2023/06/26 08:13:39;;;;;;;7.10;2.17;;;22.40;99.90;;;;;;4993530;28;20050;-79
2023/06/26 08:16:25;;;;;;;10.55;2.92;;;22.50;99.90;;;;;;4962907;28;20053;-77
2023/06/26 08:19:12;;;;;;;8.73;2.67;;;22.60;99.90;;;;;;4962903;28;20062;-78
2023/06/26 08:21:58;;;;;;;10.00;2.45;;;22.60;99.90;;;;;;4993203;28;20079;-77
2023/06/26 08:24:44;;;;;;;7.60;2.17;;;22.50;99.90;;;;;;4993029;28;20042;-78
2023/06/26 08:27:30;;;;;;;10.30;2.13;;;22.40;99.90;;;;;;4993119;28;20054;-80
2023/06/26 08:30:16;;;;;;;11.70;2.60;;;22.40;99.90;;;;;;4975038;28;20249;-80
2023/06/26 08:33:02;;;;;;;9.45;2.45;;;22.70;99.90;;;;;;4978571;28;20054;-78
2023/06/26 08:35:50;;;;;;;9.93;2.00;;;22.90;99.90;;;;;;4991900;28;20054;-77
2023/06/26 08:38:36;;;;;;;10.02;2.75;;;22.90;99.90;;;;;;4992181;28;20057;-77
2023/06/26 08:41:22;;;;;;;7.85;2.47;;;22.90;99.90;;;;;;4977602;28;20205;-76
2023/06/26 08:44:09;;;;;;;10.10;2.67;;;23.00;99.90;;;;;;4992283;28;20050;-76
2023/06/26 08:46:55;;;;;;;7.93;2.10;;;23.10;99.90;;;;;;4991661;28;20838;-75
2023/06/26 08:49:51;;;;;;;11.02;2.40;;;22.90;99.90;;;;;;4991165;28;20055;-79
2023/06/26 08:52:46;;;;;;;6.78;2.10;;;23.10;99.90;;;;;;4991795;28;20104;-78
2023/06/26 08:55:35;;;;;;;11.40;2.90;;;23.00;99.90;;;;;;4991299;28;20057;-77
2023/06/26 08:58:22;;;;;;;8.13;2.60;;;23.10;99.90;;;;;;4991695;28;20502;-79
2023/06/26 09:01:08;;;;;;;8.85;2.45;;;23.10;99.90;;;;;;4991138;28;20061;-78
2023/06/26 09:03:54;;;;;;;14.68;3.17;;;22.90;99.90;;;;;;4992329;28;20043;-81
2023/06/26 09:06:41;;;;;;;11.25;2.80;;;22.80;99.90;;;;;;4992464;28;20112;-79
2023/06/26 09:09:28;;;;;;;8.43;2.88;;;22.70;99.90;;;;;;4974268;28;20050;-77
2023/06/26 09:12:14;;;;;;;8.52;2.58;;;22.80;99.90;;;;;;4990601;28;20522;-78
2023/06/26 09:15:03;;;;;;;13.90;2.85;;;22.60;99.90;;;;;;4992180;28;20046;-78
2023/06/26 09:17:49;;;;;;;9.60;2.15;;;22.70;99.90;;;;;;4991020;28;20145;-80
2023/06/26 09:20:36;;;;;;;6.28;1.92;;;22.80;99.90;;;;;;4974415;28;20473;-78
2023/06/26 09:23:22;;;;;;;8.40;2.25;;;23.20;99.90;;;;;;4991311;28;20046;-76
2023/06/26 09:26:08;;;;;;;6.95;2.45;;;23.30;99.90;;;;;;4991387;28;20524;-79
2023/06/26 09:28:56;;;;;;;6.15;2.20;;;23.40;99.90;;;;;;4991382;28;20082;-79
2023/06/26 09:31:43;;;;;;;8.95;2.03;;;23.50;99.90;;;;;;4991769;28;20054;-78
2023/06/26 09:34:33;;;;;;;5.45;1.98;;;23.50;99.90;;;;;;4974520;28;20058;-80
2023/06/26 09:37:19;;;;;;;8.20;2.00;;;23.70;99.90;;;;;;4977075;28;20050;-79
2023/06/26 09:40:06;;;;;;;7.38;1.88;;;23.80;99.70;;;;;;4961137;28;20058;-79
2023/06/26 09:42:52;;;;;;;5.45;1.88;;;24.00;99.40;;;;;;4976691;28;20546;-78
2023/06/26 09:45:40;;;;;;;8.50;2.53;;;24.00;99.10;;;;;;4990735;28;20479;-77
2023/06/26 09:48:28;;;;;;;8.73;2.25;;;23.90;98.50;;;;;;4973168;28;20116;-76
2023/06/26 09:51:17;;;;;;;6.13;1.90;;;24.00;98.20;;;;;;4990366;28;20049;-77
2023/06/26 09:54:04;;;;;;;5.32;1.90;;;23.90;97.90;;;;;;4991384;28;20050;-79
2023/06/26 09:56:50;;;;;;;6.75;1.98;;;24.00;98.50;;;;;;4974919;28;20101;-76
2023/06/26 09:59:37;;;;;;;5.88;1.80;;;24.30;98.50;;;;;;4990943;28;20121;-76
2023/06/26 10:02:23;;;;;;;5.93;1.50;;;24.30;97.50;;;;;;4989998;28;20467;-80
2023/06/26 10:05:10;;;;;;;5.43;1.80;;;24.50;97.30;;;;;;4990882;28;20039;-78
2023/06/26 10:07:57;;;;;;;6.47;1.95;;;24.60;97.00;;;;;;4990105;28;20046;-78
2023/06/26 10:10:45;;;;;;;10.98;2.53;;;24.70;96.80;;;;;;4991740;28;20057;-78
2023/06/26 10:13:38;;;;;;;7.78;2.60;;;24.80;96.70;;;;;;4989586;28;20050;-77
2023/06/26 10:16:28;;;;;;;6.97;2.38;;;24.80;96.50;;;;;;4973479;28;20046;-77
2023/06/26 10:19:23;;;;;;;6.07;2.50;;;24.50;96.50;;;;;;4989749;28;20091;-77
2023/06/26 10:22:12;;;;;;;9.77;2.67;;;24.40;96.40;;;;;;4975896;28;20473;-79
2023/06/26 10:25:00;;;;;;;7.57;1.60;;;24.20;96.80;;;;;;4990902;28;20057;-79
2023/06/26 10:27:57;;;;;;;4.97;1.80;;;24.60;97.10;;;;;;4990119;28;20065;-79
2023/06/26 10:30:44;;;;;;;10.10;2.40;;;24.60;96.50;;;;;;4990182;28;20043;-78
2023/06/26 10:33:31;;;;;;;8.50;2.67;;;24.70;96.70;;;;;;4976366;28;20771;-77
2023/06/26 10:36:19;;;;;;;9.30;1.83;;;25.00;96.30;;;;;;4990192;28;20058;-78
2023/06/26 10:39:06;;;;;;;8.88;2.42;;;25.10;96.20;;;;;;4991777;28;20133;-74
2023/06/26 10:41:55;;;;;;;10.23;2.80;;;25.10;95.50;;;;;;4990013;28;20525;-75
2023/06/26 10:44:43;;;;;;;7.90;1.95;;;25.40;95.60;;;;;;4974241;28;20058;-77
2023/06/26 10:47:31;;;;;;;10.95;2.90;;;25.40;95.00;;;;;;4989514;28;20062;-79
2023/06/26 10:50:21;;;;;;;11.90;2.38;;;25.40;95.10;;;;;;4977793;28;20042;-77
2023/06/26 10:53:20;;;;;;;8.35;2.00;;;25.20;95.20;;;;;;4989329;28;20415;-75
2023/06/26 10:56:07;;;;;;;7.57;2.17;;;25.30;94.90;;;;;;4990072;28;20482;-80
2023/06/26 10:59:13;;;;;;;8.48;2.17;;;25.60;95.00;;;;;;4988975;28;20114;-76
2023/06/26 11:02:01;;;;;;;9.00;2.58;;;25.60;94.50;;;;;;4989800;28;20418;-79
2023/06/26 11:04:53;;;;;;;6.50;2.00;;;25.80;94.70;;;;;;4989232;28;20445;-75
2023/06/26 11:08:03;;;;;;;8.77;2.40;;;25.80;94.70;;;;;;4989668;28;20147;-77
2023/06/26 11:10:54;;;;;;;6.78;1.92;;;26.30;93.50;;;;;;4986177;28;20047;-76
2023/06/26 11:13:41;;;;;;;14.07;2.75;;;26.50;93.80;;;;;;4959767;28;20046;-76
2023/06/26 11:16:29;;;;;;;9.85;3.08;;;26.10;94.00;;;;;;4975573;28;20429;-77
2023/06/26 11:19:20;;;;;;;13.50;3.17;;;26.50;94.20;;;;;;4990496;28;20051;-76
2023/06/26 11:22:06;;;;;;;7.80;2.00;;;26.40;93.60;;;;;;4976344;28;20038;-78
2023/06/26 11:24:54;;;;;;;13.82;3.13;;;26.20;93.80;;;;;;4990705;28;20414;-76
2023/06/26 11:27:41;;;;;;;7.90;2.15;;;26.00;93.30;;;;;;4979680;28;20068;-76
2023/06/26 11:30:28;;;;;;;9.32;2.55;;;25.50;94.30;;;;;;4976749;28;20049;-75
2023/06/26 11:33:14;;;;;;;7.15;2.00;;;25.50;94.50;;;;;;4993715;28;20053;-76
2023/06/26 11:36:08;;;;;;;7.38;1.85;;;25.40;94.40;;;;;;4962241;28;20061;-76
2023/06/26 11:38:58;;;;;;;;;;;25.50;92.90;;;;;;4993572;28;20061;-79
2023/06/26 11:41:45;;;;;;;11.52;2.60;;;25.70;94.00;;;;;;4995044;28;19972;-76
2023/06/26 11:44:32;;;;;;;11.95;2.08;;;25.60;93.90;;;;;;4993748;28;20588;-77
2023/06/26 11:47:20;;;;;;;9.82;2.15;;;25.70;93.70;;;;;;4993700;28;20057;-76
2023/06/26 11:50:06;;;;;;;7.18;1.70;;;26.00;93.60;;;;;;4993956;28;20050;-78
2023/06/26 11:52:57;;;;;;;8.98;2.28;;;26.10;93.60;;;;;;4995170;28;20054;-77
2023/06/26 11:55:43;;;;;;;9.70;2.15;;;26.40;93.00;;;;;;4992356;28;20050;-75
2023/06/26 11:58:29;;;;;;;10.20;2.30;;;26.40;92.50;;;;;;4992631;28;20134;-76
2023/06/26 12:01:16;;;;;;;8.77;1.90;;;26.70;92.40;;;;;;4992195;28;20520;-79
2023/06/26 12:04:04;;;;;;;6.53;1.67;;;26.30;92.20;;;;;;4978894;28;20096;-76
2023/06/26 12:06:59;;;;;;;11.48;2.63;;;26.00;92.20;;;;;;4992761;28;20137;-75
2023/06/26 12:09:48;;;;;;;9.32;2.38;;;26.40;92.60;;;;;;4992828;28;20461;-76
2023/06/26 12:12:34;;;;;;;9.52;2.28;;;27.10;92.90;;;;;;4992699;28;20056;-76
2023/06/26 12:15:20;;;;;;;12.40;1.98;;;27.30;92.30;;;;;;4992104;28;20136;-77
2023/06/26 12:18:09;;;;;;;12.48;2.15;;;27.00;91.90;;;;;;4992820;28;20051;-77
2023/06/26 12:20:55;;;;;;;6.93;1.70;;;26.70;91.90;;;;;;4992206;28;20054;-76
2023/06/26 12:23:41;;;;;;;11.65;3.15;;;26.40;91.80;;;;;;4993159;28;20517;-77
2023/06/26 12:26:33;;;;;;;12.20;1.90;;;26.60;91.80;;;;;;4975041;28;20054;-75
2023/06/26 12:29:20;;;;;;;7.50;1.90;;;26.80;92.10;;;;;;4992615;28;20077;-78
2023/06/26 12:32:10;;;;;;;14.70;2.67;;;27.00;91.90;;;;;;4993027;28;20159;-77
2023/06/26 12:34:58;;;;;;;9.55;1.98;;;26.90;92.00;;;;;;4992123;28;20054;-76
2023/06/26 12:37:45;;;;;;;10.23;2.20;;;27.40;92.10;;;;;;4977847;28;20046;-77
2023/06/26 12:40:31;;;;;;;12.27;3.72;;;27.50;91.70;;;;;;4991709;28;20108;-77
2023/06/26 12:43:25;;;;;;;10.40;2.17;;;26.90;91.90;;;;;;4992759;28;20050;-75
2023/06/26 12:46:12;;;;;;;13.85;2.33;;;26.50;92.00;;;;;;4992261;28;20054;-75
2023/06/26 12:48:59;;;;;;;10.82;2.03;;;26.30;92.40;;;;;;4993255;28;20258;-79
2023/06/26 12:51:46;;;;;;;11.57;2.60;;;26.40;92.70;;;;;;4992396;28;20052;-77
2023/06/26 12:54:37;;;;;;;8.73;1.92;;;26.00;92.80;;;;;;4975890;28;20055;-76
2023/06/26 12:57:23;;;;;;;10.15;2.10;;;25.90;93.10;;;;;;4992443;28;20105;-77
2023/06/26 13:00:10;;;;;;;13.35;2.90;;;25.30;93.10;;;;;;4990947;28;20050;-79
2023/06/26 13:02:56;;;;;;;8.93;2.10;;;25.00;93.40;;;;;;4978165;28;20175;-79
2023/06/26 13:05:42;;;;;;;12.20;2.35;;;24.70;93.80;;;;;;4973970;28;20112;-76
2023/06/26 13:08:28;;;;;;;13.77;2.33;;;24.30;94.10;;;;;;4992172;28;20378;-76
2023/06/26 13:11:16;;;;;;;9.82;2.38;;;24.00;94.70;;;;;;4991728;28;20054;-75
2023/06/26 13:14:03;;;;;;;10.32;2.30;;;23.90;94.80;;;;;;4991465;28;20046;-74
2023/06/26 13:16:49;;;;;;;9.35;2.28;;;23.90;94.70;;;;;;4960387;28;20054;-76
2023/06/26 13:19:35;;;;;;;10.10;2.40;;;23.80;95.00;;;;;;4991598;28;20054;-76
2023/06/26 13:22:21;;;;;;;13.93;2.30;;;24.30;95.30;;;;;;4992175;28;20053;-76
2023/06/26 13:25:08;;;;;;;14.77;2.58;;;24.20;94.80;;;;;;4977622;28;20498;-76
2023/06/26 13:27:54;;;;;;;10.02;2.70;;;24.00;94.50;;;;;;4977885;28;20050;-74
2023/06/26 13:30:40;;;;;;;13.95;3.00;;;23.80;94.80;;;;;;4974346;28;20493;-77
2023/06/26 13:33:26;;;;;;;9.93;2.08;;;23.30;95.70;;;;;;4961333;28;20517;-75
2023/06/26 13:36:12;;;;;;;9.10;1.88;;;23.10;96.10;;;;;;4973652;28;20058;-75
2023/06/26 13:38:58;;;;;;;13.27;2.33;;;23.20;96.20;;;;;;4990835;28;20133;-75
2023/06/26 13:41:45;;;;;;;7.78;2.33;;;23.00;96.50;;;;;;4960258;28;20054;-75
2023/06/26 13:44:31;;;;;;;9.15;2.10;;;23.40;96.70;;;;;;4960779;28;20117;-75
2023/06/26 13:47:16;;;;;;;11.48;2.35;;;23.10;96.70;;;;;;4990415;28;20597;-77
2023/06/26 13:50:03;;;;;;;14.05;2.70;;;22.90;96.90;;;;;;4990893;28;20050;-75
2023/06/26 13:52:49;;;;;;;13.10;2.15;;;22.80;96.80;;;;;;4992018;28;20046;-75
2023/06/26 13:55:37;;;;;;;8.38;1.92;;;22.90;97.00;;;;;;4990831;28;20046;-76
2023/06/26 13:58:26;;;;;;;10.05;2.38;;;23.50;96.10;;;;;;4974329;28;20054;-75
2023/06/26 14:01:13;;;;;;;15.20;2.42;;;23.60;96.30;;;;;;4989583;28;20418;-76
2023/06/26 14:03:59;;;;;;;13.57;2.53;;;23.70;96.30;;;;;;4991641;28;20054;-75
2023/06/26 14:06:45;;;;;;;11.65;2.22;;;24.10;96.10;;;;;;4990054;28;20137;-76
2023/06/26 14:09:31;;;;;;;10.35;2.35;;;24.80;95.10;;;;;;4972402;28;20097;-76
2023/06/26 14:12:18;;;;;;;9.90;2.13;;;24.80;94.40;;;;;;4990824;28;20057;-75
2023/06/26 14:15:04;;;;;;;6.35;1.38;;;25.30;93.90;;;;;;4989125;28;20074;-74
2023/06/26 14:17:51;;;;;;;17.17;2.22;;;25.40;93.30;;;;;;4973468;28;20064;-75
2023/06/26 14:20:37;;;;;;;15.35;2.90;;;25.40;93.80;;;;;;4989356;28;20160;-75